Yuho Maru No.3 — JD2491 — position and weather

sailwx.info

Track history (hours):
 
Tides and Currents Weather Stations Pressure Air Temp Water Temp Dewpoint Dewpoint Depression Visibility Wind Speed Wind Dir Waves Ship Positions

Yuho Maru No.3

Last reported at 2016-Dec-06 13:17 UTC. Time now 2016-Dec-07 14:24 UTC.
Position N 35°05' E 139°45'.

Length 65 m; draft 4.2 m.

Type: Tanker. MMSI: 431000336.

Date/timePositionNaut miles runAvg speedWind from/ knotsBaromVisibWave heightAir tempDewpointWater temp
2016-Dec-06 13:17N 35°05' E 139°45'2011.5
2016-Dec-06 11:34N 35°25' E 139°43'11 8.7
2016-Dec-06 10:17N 35°29' E 139°56'0 0.0
2016-Dec-06 09:30N 35°29' E 139°56'0 0.0
2016-Dec-06 08:33N 35°29' E 139°56'0 0.0
2016-Dec-06 07:33N 35°29' E 139°56'0 0.0
2016-Dec-06 06:33N 35°29' E 139°56'0 0.0
2016-Dec-06 05:33N 35°29' E 139°56'0 0.0
2016-Dec-06 04:26N 35°29' E 139°56'10 4.5
2016-Dec-06 02:17N 35°33' E 140°06'0 0.0
2016-Dec-06 01:20N 35°33' E 140°06'0 0.0
2016-Dec-06 00:24N 35°33' E 140°06'0 0.0
2016-Dec-05 23:12N 35°33' E 140°06'0 0.0
2016-Dec-05 22:33N 35°33' E 140°06'2 0.2
2016-Dec-05 12:32N 35°36' E 140°06'0 0.0
2016-Dec-05 03:33N 35°36' E 140°06'9 1.9
2016-Dec-04 23:11N 35°40' E 139°57'4 7.3
2016-Dec-04 22:34N 35°36' E 139°55'0 0.0
2016-Dec-04 21:33N 35°36' E 139°55'0 0.0
2016-Dec-04 20:31N 35°36' E 139°55'0 0.0
2016-Dec-04 19:33N 35°36' E 139°55'0 0.0
2016-Dec-04 18:33N 35°36' E 139°55'0 0.0
2016-Dec-04 17:33N 35°36' E 139°55'0 0.0
2016-Dec-04 16:33N 35°36' E 139°55'0 0.0
2016-Dec-04 15:33N 35°36' E 139°55'0 0.0
2016-Dec-04 14:33N 35°36' E 139°55'0 0.0
2016-Dec-04 13:33N 35°36' E 139°55'0 0.0
2016-Dec-04 12:33N 35°36' E 139°55'0 0.1
2016-Dec-04 11:34N 35°36' E 139°55'0 0.0
2016-Dec-04 10:33N 35°36' E 139°55'0 0.0
2016-Dec-04 09:34N 35°36' E 139°55'0 0.0
2016-Dec-04 08:34N 35°36' E 139°55'0 0.0
2016-Dec-04 07:33N 35°36' E 139°55'0 0.0
2016-Dec-04 06:33N 35°36' E 139°55'0 0.1
2016-Dec-04 05:33N 35°36' E 139°55'0 0.0
2016-Dec-04 04:34N 35°36' E 139°55'0 0.0
2016-Dec-04 03:34N 35°36' E 139°55'0 0.0
2016-Dec-04 02:32N 35°36' E 139°55'0 0.0
2016-Dec-04 01:30N 35°36' E 139°55'0 0.0
2016-Dec-04 00:33N 35°36' E 139°55'0 0.0
2016-Dec-03 23:33N 35°36' E 139°55'3 3.1
2016-Dec-03 22:34N 35°33' E 139°53'1212.0
2016-Dec-03 21:33N 35°23' E 139°46'1211.7
2016-Dec-03 20:33N 35°11' E 139°46'  
2016-Nov-30 06:04N 34°37' E 135°01'5 9.7
2016-Nov-30 05:33N 34°35' E 135°07'1212.1
2016-Nov-30 04:33N 34°33' E 135°21'2 0.4
2016-Nov-29 23:32N 34°32' E 135°24'1212.5
2016-Nov-29 22:33N 34°37' E 135°10'1 1.5
2016-Nov-29 21:33N 34°38' E 135°08'0 0.0
2016-Nov-29 20:33N 34°38' E 135°08'0 0.0
2016-Nov-29 19:33N 34°38' E 135°08'0 0.1
2016-Nov-29 18:33N 34°37' E 135°08'0 0.0
2016-Nov-29 17:33N 34°37' E 135°08'0 0.0
2016-Nov-29 16:33N 34°37' E 135°08'0 0.0
2016-Nov-29 15:33N 34°38' E 135°08'0 0.0
2016-Nov-29 14:33N 34°37' E 135°08'0 0.0
2016-Nov-29 13:33N 34°37' E 135°08'0 0.0
2016-Nov-29 12:33N 34°37' E 135°08'0 0.0
2016-Nov-29 11:33N 34°37' E 135°08'0 0.0
2016-Nov-29 10:33N 34°37' E 135°08'0 0.0
2016-Nov-29 09:33N 34°37' E 135°08'  
2016-Nov-27 05:32N 35°11' E 139°46'1111.3
2016-Nov-27 04:33N 35°22' E 139°42'1111.2
2016-Nov-27 03:33N 35°30' E 139°52'  
Track history (hours):
 
Tides and Currents Weather Stations Pressure Air Temp Water Temp Dewpoint Dewpoint Depression Visibility Wind Speed Wind Dir Waves Ship Positions

Yuho Maru No.3

Last reported at 2016-Dec-06 13:17 UTC. Time now 2016-Dec-07 14:24 UTC.
Position N 35°05' E 139°45'.

Length 65 m; draft 4.2 m.

Type: Tanker. MMSI: 431000336.

Date/timePositionNaut miles runAvg speedWind from/ knotsBaromVisibWave heightAir tempDewpointWater temp
2016-Dec-06 13:17N 35°05' E 139°45'2011.5
2016-Dec-06 11:34N 35°25' E 139°43'11 8.7
2016-Dec-06 10:17N 35°29' E 139°56'0 0.0
2016-Dec-06 09:30N 35°29' E 139°56'0 0.0
2016-Dec-06 08:33N 35°29' E 139°56'0 0.0
2016-Dec-06 07:33N 35°29' E 139°56'0 0.0
2016-Dec-06 06:33N 35°29' E 139°56'0 0.0
2016-Dec-06 05:33N 35°29' E 139°56'0 0.0
2016-Dec-06 04:26N 35°29' E 139°56'10 4.5
2016-Dec-06 02:17N 35°33' E 140°06'0 0.0
2016-Dec-06 01:20N 35°33' E 140°06'0 0.0
2016-Dec-06 00:24N 35°33' E 140°06'0 0.0
2016-Dec-05 23:12N 35°33' E 140°06'0 0.0
2016-Dec-05 22:33N 35°33' E 140°06'2 0.2
2016-Dec-05 12:32N 35°36' E 140°06'0 0.0
2016-Dec-05 03:33N 35°36' E 140°06'9 1.9
2016-Dec-04 23:11N 35°40' E 139°57'4 7.3
2016-Dec-04 22:34N 35°36' E 139°55'0 0.0
2016-Dec-04 21:33N 35°36' E 139°55'0 0.0
2016-Dec-04 20:31N 35°36' E 139°55'0 0.0
2016-Dec-04 19:33N 35°36' E 139°55'0 0.0
2016-Dec-04 18:33N 35°36' E 139°55'0 0.0
2016-Dec-04 17:33N 35°36' E 139°55'0 0.0
2016-Dec-04 16:33N 35°36' E 139°55'0 0.0
2016-Dec-04 15:33N 35°36' E 139°55'0 0.0
2016-Dec-04 14:33N 35°36' E 139°55'0 0.0
2016-Dec-04 13:33N 35°36' E 139°55'0 0.0
2016-Dec-04 12:33N 35°36' E 139°55'0 0.1
2016-Dec-04 11:34N 35°36' E 139°55'0 0.0
2016-Dec-04 10:33N 35°36' E 139°55'0 0.0
2016-Dec-04 09:34N 35°36' E 139°55'0 0.0
2016-Dec-04 08:34N 35°36' E 139°55'0 0.0
2016-Dec-04 07:33N 35°36' E 139°55'0 0.0
2016-Dec-04 06:33N 35°36' E 139°55'0 0.1
2016-Dec-04 05:33N 35°36' E 139°55'0 0.0
2016-Dec-04 04:34N 35°36' E 139°55'0 0.0
2016-Dec-04 03:34N 35°36' E 139°55'0 0.0
2016-Dec-04 02:32N 35°36' E 139°55'0 0.0
2016-Dec-04 01:30N 35°36' E 139°55'0 0.0
2016-Dec-04 00:33N 35°36' E 139°55'0 0.0
2016-Dec-03 23:33N 35°36' E 139°55'3 3.1
2016-Dec-03 22:34N 35°33' E 139°53'1212.0
2016-Dec-03 21:33N 35°23' E 139°46'1211.7
2016-Dec-03 20:33N 35°11' E 139°46'  
2016-Nov-30 06:04N 34°37' E 135°01'5 9.7
2016-Nov-30 05:33N 34°35' E 135°07'1212.1
2016-Nov-30 04:33N 34°33' E 135°21'2 0.4
2016-Nov-29 23:32N 34°32' E 135°24'1212.5
2016-Nov-29 22:33N 34°37' E 135°10'1 1.5
2016-Nov-29 21:33N 34°38' E 135°08'0 0.0
2016-Nov-29 20:33N 34°38' E 135°08'0 0.0
2016-Nov-29 19:33N 34°38' E 135°08'0 0.1
2016-Nov-29 18:33N 34°37' E 135°08'0 0.0
2016-Nov-29 17:33N 34°37' E 135°08'0 0.0
2016-Nov-29 16:33N 34°37' E 135°08'0 0.0
2016-Nov-29 15:33N 34°38' E 135°08'0 0.0
2016-Nov-29 14:33N 34°37' E 135°08'0 0.0
2016-Nov-29 13:33N 34°37' E 135°08'0 0.0
2016-Nov-29 12:33N 34°37' E 135°08'0 0.0
2016-Nov-29 11:33N 34°37' E 135°08'0 0.0
2016-Nov-29 10:33N 34°37' E 135°08'0 0.0
2016-Nov-29 09:33N 34°37' E 135°08'  
2016-Nov-27 05:32N 35°11' E 139°46'1111.3
2016-Nov-27 04:33N 35°22' E 139°42'1111.2
2016-Nov-27 03:33N 35°30' E 139°52'  

Dump ship's entire track history